General Ignacio P Garcia International Airport
MMHO : now visible

Airfield :











YOU CAN JOIN US ON...

 
LOGIN :

Register | Disclaimer

   EN    FR    IT 

 









Legend :    VFR   Marginal VFR   IFR   Intensive IFR   Very Intensive IFR
Visi :
Ceiling :
>= 8 km
>= 3000ft
5 to 8 km
1000 to 3000 ft
1500m to 5 km
500 to 1000 ft
800 to 1500m
200 to 500 ft
< 800m
< 200 ft
Symbols :   Thunderstorms  Fog  Heavy snow  Heavy precipitations  Wind > 20 kt






- Airport Elevation : 627 ft
- IATA code : HMO


MMHO - General Ignacio P Garcia International

CURRENT METAR :
  • 060440Z 34006KT 10SM SKC 20/14 A3010 RMK ISOL CI HZY

EXPIRED METARs :
  • 060340Z 32005KT 10SM FEW200 20/13 A3010 RMK 8/008 ISOL AC HZY
  • 060240Z 32005KT 10SM FEW200 20/14 A3008 RMK SLP186 52014 919 8/008 ISOL AC HZY

TAF TAF MMHO
Valid from the 06 at 06:00 until the 07 at 06:00 UTC


060513Z 0606/0706 34006KT P6SM SCT200
FM061800 24008KT P6SM SCT090 SCT220
BECMG 0703/0705 33005KT



MET'MAP, your aeronautical weather chart ! - Copyright ORBIFLY December 2007 - Disclaimer

ORBIFLY MET'MAP TEAM :

Programming & Development : Alexandra Zaïnal
Concept & original design : Baudouin d'Aumeries
Assistance for programming : Marc-Olivier Méhu
Technical & hardware support : Manuel Goepfert

Contact : metmap@orbifly.com




SOURCES & CREDITS :

   NOAA       Earth
Advisory